Time;durP1;ratioP1;P1;durP2;ratioP2;P2;SDS_P1;SDS_P2;PMS_P1;PMS_P2;Temp;Humidity;BMP_temperature;BMP_pressure;BME280_temperature;BME280_humidity;BME280_pressure;Samples;Min_cycle;Max_cycle;Signal;HPM_P1;HPM_P2
2022/03/09 00:01:14;;;;;;;1.80;0.40;;;23.30;99.90;;;;;;5011375;28;20493;-70
2022/03/09 00:03:41;;;;;;;0.95;0.20;;;23.40;99.90;;;;;;5011460;28;20112;-71
2022/03/09 00:06:08;;;;;;;1.15;0.30;;;23.50;99.90;;;;;;5011509;28;20069;-73
2022/03/09 00:08:36;;;;;;;2.10;0.32;;;23.50;99.90;;;;;;5010915;28;20049;-71
2022/03/09 00:11:03;;;;;;;1.25;0.45;;;23.60;99.90;;;;;;5010662;28;20422;-74
2022/03/09 00:13:30;;;;;;;0.20;0.20;;;23.70;99.90;;;;;;5011237;28;20425;-72
2022/03/09 00:15:57;;;;;;;4.63;0.60;;;23.80;99.90;;;;;;5011161;28;20025;-73
2022/03/09 00:18:25;;;;;;;2.15;0.47;;;23.80;99.90;;;;;;5011202;28;20495;-73
2022/03/09 00:20:52;;;;;;;4.15;0.70;;;23.90;99.90;;;;;;5010655;28;20114;-72
2022/03/09 00:23:20;;;;;;;1.48;0.50;;;23.80;99.90;;;;;;5010290;28;20105;-75
2022/03/09 00:25:47;;;;;;;1.35;0.38;;;23.80;99.90;;;;;;5009597;28;20030;-70
2022/03/09 00:28:14;;;;;;;0.85;0.30;;;23.70;99.90;;;;;;5010976;28;20026;-76
2022/03/09 00:30:42;;;;;;;1.27;0.30;;;23.70;99.90;;;;;;5010566;28;20076;-69
2022/03/09 00:33:09;;;;;;;3.55;0.70;;;23.60;99.90;;;;;;5009939;28;20461;-70
2022/03/09 00:35:42;;;;;;;1.92;0.55;;;23.50;99.90;;;;;;5010631;28;20029;-70
2022/03/09 00:38:10;;;;;;;2.80;0.40;;;23.50;99.90;;;;;;5010611;28;20021;-67
2022/03/09 00:40:38;;;;;;;4.13;0.47;;;23.50;99.90;;;;;;5010663;28;20030;-76
2022/03/09 00:43:06;;;;;;;4.88;0.40;;;23.40;99.90;;;;;;5010486;28;20033;-68
2022/03/09 00:45:37;;;;;;;0.55;0.20;;;23.40;99.90;;;;;;5010796;28;20033;-69
2022/03/09 00:48:04;;;;;;;1.33;0.20;;;23.30;99.90;;;;;;5010580;28;20037;-74
2022/03/09 00:50:31;;;;;;;1.08;0.30;;;23.30;99.90;;;;;;5012097;28;20376;-75
2022/03/09 00:53:00;;;;;;;0.60;0.30;;;23.30;99.90;;;;;;5014076;28;20022;-71
2022/03/09 00:55:27;;;;;;;2.97;1.65;;;23.30;99.90;;;;;;5014004;28;20113;-75
2022/03/09 00:57:56;;;;;;;2.95;0.73;;;23.30;99.90;;;;;;5014437;28;20489;-73
2022/03/09 01:00:23;;;;;;;5.72;0.80;;;23.40;99.90;;;;;;5013823;28;20092;-72
2022/03/09 01:02:50;;;;;;;8.57;1.65;;;23.50;99.90;;;;;;5012265;28;20097;-77
2022/03/09 01:05:18;;;;;;;3.92;0.80;;;23.70;99.90;;;;;;5012557;28;20068;-72
2022/03/09 01:07:45;;;;;;;3.00;0.43;;;23.80;99.90;;;;;;5012565;28;20033;-72
2022/03/09 01:10:13;;;;;;;10.13;1.90;;;23.90;99.90;;;;;;5013877;28;20030;-75
2022/03/09 01:12:40;;;;;;;7.00;0.80;;;23.90;99.90;;;;;;5013727;28;20069;-72
2022/03/09 01:15:08;;;;;;;3.78;0.50;;;24.00;99.90;;;;;;5012003;28;20020;-73
2022/03/09 01:17:35;;;;;;;1.50;0.43;;;24.10;99.90;;;;;;5013442;28;20021;-70
2022/03/09 01:20:04;;;;;;;6.40;0.95;;;24.20;99.90;;;;;;5011472;28;20495;-72
2022/03/09 01:22:33;;;;;;;3.35;1.08;;;24.40;99.90;;;;;;5011257;28;20492;-73
2022/03/09 01:25:01;;;;;;;1.75;0.45;;;24.50;99.90;;;;;;5011740;28;20018;-71
2022/03/09 01:27:28;;;;;;;1.35;0.38;;;24.70;99.90;;;;;;5009800;28;20029;-77
2022/03/09 01:29:55;;;;;;;4.13;1.20;;;24.80;99.90;;;;;;5012828;28;20099;-77
2022/03/09 01:32:23;;;;;;;2.95;0.50;;;24.80;99.90;;;;;;5014731;28;20014;-71
2022/03/09 01:34:50;;;;;;;1.70;0.80;;;24.80;99.90;;;;;;5013539;28;20072;-77
2022/03/09 01:37:18;;;;;;;4.05;1.52;;;24.80;99.90;;;;;;5013203;28;20489;-74
2022/03/09 01:39:45;;;;;;;2.78;1.10;;;24.80;99.90;;;;;;5013012;28;20025;-74
2022/03/09 01:42:13;;;;;;;5.05;0.57;;;24.80;99.90;;;;;;5021610;28;20509;-69
2022/03/09 01:44:40;;;;;;;1.85;0.70;;;24.70;99.90;;;;;;5013694;28;20049;-70
2022/03/09 01:47:08;;;;;;;2.95;0.98;;;24.50;99.90;;;;;;5012011;28;20482;-77
2022/03/09 01:49:36;;;;;;;4.25;0.80;;;24.40;99.90;;;;;;5013327;28;20075;-73
2022/03/09 01:52:04;;;;;;;3.40;0.68;;;24.30;99.90;;;;;;5011191;28;20030;-73
2022/03/09 01:54:32;;;;;;;2.85;0.40;;;24.30;99.90;;;;;;4992735;28;20088;-71
2022/03/09 01:57:00;;;;;;;3.13;0.55;;;24.30;99.90;;;;;;4992971;28;20165;-75
2022/03/09 01:59:28;;;;;;;2.85;0.85;;;24.30;99.90;;;;;;4992362;28;20022;-73
2022/03/09 02:01:55;;;;;;;3.08;0.57;;;24.30;99.90;;;;;;4991502;28;20508;-71
2022/03/09 02:04:22;;;;;;;3.53;0.50;;;24.40;99.90;;;;;;5011062;28;20021;-77
2022/03/09 02:06:49;;;;;;;3.15;0.60;;;24.40;99.90;;;;;;5012464;28;20037;-69
2022/03/09 02:12:02;;;;;;;4.88;1.17;;;24.20;99.90;;;;;;5012950;28;20694;-75
2022/03/09 02:14:46;;;;;;;2.47;0.80;;;24.20;99.90;;;;;;5012556;28;20029;-69
2022/03/09 02:17:25;;;;;;;6.65;2.05;;;24.30;99.90;;;;;;5012649;28;20030;-71
2022/03/09 02:19:53;;;;;;;3.97;1.55;;;24.50;99.90;;;;;;5011430;28;20052;-74
2022/03/09 02:22:21;;;;;;;3.85;1.30;;;24.60;99.90;;;;;;5012673;28;20041;-75
2022/03/09 02:24:49;;;;;;;2.75;0.80;;;24.70;99.90;;;;;;5012874;28;20071;-72
2022/03/09 02:27:17;;;;;;;5.10;0.80;;;24.70;99.90;;;;;;5012861;28;20025;-73
2022/03/09 02:29:47;;;;;;;4.72;1.10;;;24.70;99.90;;;;;;5011651;28;20065;-71
2022/03/09 02:32:14;;;;;;;3.30;0.50;;;24.70;99.90;;;;;;5012893;28;20068;-71
2022/03/09 02:34:41;;;;;;;3.70;0.88;;;24.60;99.90;;;;;;5012407;28;20022;-72
2022/03/09 02:37:10;;;;;;;3.17;1.00;;;24.70;99.90;;;;;;5012170;28;20161;-70
2022/03/09 02:39:37;;;;;;;3.17;1.40;;;24.70;99.90;;;;;;5011189;28;20033;-75
2022/03/09 02:42:05;;;;;;;5.57;1.35;;;24.70;99.90;;;;;;5012637;28;20049;-73
2022/03/09 02:44:33;;;;;;;3.50;0.75;;;24.80;99.80;;;;;;5013120;28;20400;-71
2022/03/09 02:47:00;;;;;;;4.78;1.05;;;24.90;99.40;;;;;;5012342;28;20022;-73
2022/03/09 02:49:27;;;;;;;2.20;0.93;;;25.00;99.00;;;;;;5012310;28;20049;-74
2022/03/09 02:51:55;;;;;;;4.10;1.30;;;25.10;99.00;;;;;;5012234;28;20024;-72
2022/03/09 02:54:22;;;;;;;4.45;1.27;;;25.20;98.90;;;;;;5012501;28;20036;-74
2022/03/09 02:56:49;;;;;;;2.53;0.82;;;25.30;98.70;;;;;;5012097;28;20029;-69
2022/03/09 02:59:17;;;;;;;2.20;0.60;;;25.40;98.80;;;;;;5012113;28;20026;-71
2022/03/09 03:01:44;;;;;;;4.35;0.50;;;25.50;98.70;;;;;;5011565;28;20034;-75
2022/03/09 03:04:11;;;;;;;4.43;0.93;;;25.50;98.00;;;;;;5012372;28;20032;-72
2022/03/09 03:06:39;;;;;;;3.25;0.93;;;25.40;98.20;;;;;;5011950;28;20105;-72
2022/03/09 03:09:06;;;;;;;2.22;0.80;;;25.50;97.90;;;;;;5010961;28;20149;-77
2022/03/09 03:11:33;;;;;;;3.58;0.88;;;25.50;97.70;;;;;;5012482;28;20030;-72
2022/03/09 03:14:01;;;;;;;3.70;1.00;;;25.60;97.50;;;;;;5011761;28;20088;-73
2022/03/09 03:16:28;;;;;;;2.15;0.50;;;26.00;97.30;;;;;;5012018;28;20105;-71
2022/03/09 03:18:55;;;;;;;4.43;0.70;;;26.60;96.70;;;;;;5010579;28;20045;-71
2022/03/09 03:21:22;;;;;;;4.00;0.70;;;27.10;95.70;;;;;;5010501;28;20129;-70
2022/03/09 03:23:50;;;;;;;2.70;0.90;;;27.60;95.00;;;;;;5011789;28;20546;-71
2022/03/09 03:26:17;;;;;;;1.77;0.73;;;27.80;94.30;;;;;;5012105;28;20037;-70
2022/03/09 03:28:44;;;;;;;1.50;0.50;;;28.10;94.10;;;;;;5012292;28;20100;-71
2022/03/09 03:31:11;;;;;;;1.20;0.32;;;28.10;93.80;;;;;;5012223;28;20471;-72
2022/03/09 03:33:39;;;;;;;2.53;0.57;;;28.20;93.40;;;;;;5012350;28;20386;-75
2022/03/09 03:36:06;;;;;;;0.82;0.30;;;28.10;93.40;;;;;;5012307;28;20028;-74
2022/03/09 03:38:33;;;;;;;1.25;0.52;;;28.10;93.40;;;;;;5011943;28;20064;-72
2022/03/09 03:41:01;;;;;;;1.63;0.20;;;27.90;93.00;;;;;;5012341;28;20041;-75
2022/03/09 03:43:28;;;;;;;2.05;0.40;;;27.60;93.80;;;;;;5012142;28;20088;-75
2022/03/09 03:45:58;;;;;;;5.05;1.08;;;27.50;93.50;;;;;;5012158;28;20112;-72
2022/03/09 03:48:25;;;;;;;2.00;0.55;;;27.40;93.00;;;;;;5011844;28;20442;-69
2022/03/09 03:50:52;;;;;;;3.00;0.88;;;27.90;92.40;;;;;;5011969;28;20037;-68
2022/03/09 03:53:19;;;;;;;3.70;0.60;;;28.60;91.20;;;;;;5011875;28;20044;-74
2022/03/09 03:55:47;;;;;;;5.25;0.82;;;29.20;90.90;;;;;;5008317;28;20096;-79
2022/03/09 03:58:14;;;;;;;2.47;0.68;;;29.80;89.70;;;;;;5011527;28;20032;-72
2022/03/09 04:00:41;;;;;;;3.42;0.77;;;30.40;89.10;;;;;;5011030;28;20044;-70
2022/03/09 04:03:08;;;;;;;2.72;0.45;;;30.10;88.10;;;;;;5011220;28;20490;-70
2022/03/09 04:05:36;;;;;;;3.08;0.63;;;29.70;88.20;;;;;;5011291;28;20069;-73
2022/03/09 04:08:03;;;;;;;7.43;1.63;;;29.40;88.00;;;;;;5011311;28;20038;-74
2022/03/09 04:10:30;;;;;;;9.82;3.50;;;28.80;88.50;;;;;;5011741;28;20072;-70
2022/03/09 04:13:00;;;;;;;2.58;0.65;;;28.00;89.80;;;;;;5014318;28;20026;-69
2022/03/09 04:15:28;;;;;;;5.10;1.55;;;27.80;90.20;;;;;;5011199;28;20088;-69
2022/03/09 04:17:55;;;;;;;2.70;0.70;;;28.20;90.70;;;;;;5009744;28;20032;-73
2022/03/09 04:20:22;;;;;;;5.70;1.55;;;28.70;90.40;;;;;;5010850;28;20041;-72
2022/03/09 04:22:50;;;;;;;10.32;2.00;;;28.80;89.30;;;;;;5011105;28;20490;-75
2022/03/09 04:25:17;;;;;;;4.75;1.02;;;28.50;89.20;;;;;;5007750;28;20213;-74
2022/03/09 04:27:45;;;;;;;3.08;0.80;;;28.00;90.70;;;;;;5014681;28;20428;-74
2022/03/09 04:30:12;;;;;;;1.88;0.38;;;27.50;90.80;;;;;;5010952;28;20022;-78
2022/03/09 04:32:39;;;;;;;2.70;0.90;;;27.30;91.20;;;;;;5014606;28;20033;-76
2022/03/09 04:35:07;;;;;;;1.20;0.30;;;27.30;90.90;;;;;;5013056;28;20026;-78
2022/03/09 04:37:34;;;;;;;1.35;0.40;;;27.10;91.10;;;;;;5014017;28;20022;-76
2022/03/09 04:40:04;;;;;;;2.47;0.30;;;26.90;91.40;;;;;;5013919;28;20126;-78
2022/03/09 04:42:32;;;;;;;2.60;0.90;;;26.50;91.60;;;;;;5014261;28;20092;-72
2022/03/09 04:44:59;;;;;;;3.53;0.80;;;26.40;91.90;;;;;;5013511;28;20017;-73
2022/03/09 04:47:27;;;;;;;1.48;0.40;;;26.30;91.90;;;;;;5013720;28;20041;-70
2022/03/09 04:49:54;;;;;;;2.67;0.50;;;26.20;92.00;;;;;;5013819;28;20048;-71
2022/03/09 04:52:21;;;;;;;2.28;0.50;;;26.30;91.40;;;;;;5013955;28;20438;-73
2022/03/09 04:54:49;;;;;;;2.67;0.52;;;26.20;91.70;;;;;;5013811;28;20083;-71
2022/03/09 04:57:17;;;;;;;4.40;0.60;;;26.20;91.80;;;;;;5013665;28;20022;-70
2022/03/09 04:59:45;;;;;;;3.92;0.77;;;26.10;92.40;;;;;;5013915;28;20432;-71
2022/03/09 05:02:12;;;;;;;3.85;0.57;;;26.10;91.90;;;;;;5014137;28;20088;-69
2022/03/09 05:04:41;;;;;;;2.83;0.57;;;26.30;92.00;;;;;;5012518;28;20422;-73
2022/03/09 05:07:08;;;;;;;3.53;0.50;;;26.40;92.00;;;;;;5012347;28;20121;-76
2022/03/09 05:09:36;;;;;;;4.72;0.70;;;26.30;91.50;;;;;;5014061;28;20053;-80
2022/03/09 05:12:05;;;;;;;3.75;0.50;;;26.20;91.50;;;;;;5013657;28;20061;-77
2022/03/09 05:14:33;;;;;;;2.45;0.90;;;26.60;92.00;;;;;;5013348;28;20406;-74
2022/03/09 05:17:03;;;;;;;1.73;0.60;;;27.10;91.30;;;;;;5013182;28;20038;-73
2022/03/09 05:19:30;;;;;;;2.67;0.60;;;27.20;90.60;;;;;;5013180;28;20092;-71
2022/03/09 05:21:58;;;;;;;3.97;0.90;;;27.30;91.10;;;;;;5013005;28;20493;-74
2022/03/09 05:24:25;;;;;;;1.88;0.60;;;27.60;90.40;;;;;;5012682;28;20028;-73
2022/03/09 05:26:52;;;;;;;1.90;0.50;;;27.90;90.10;;;;;;4992037;28;20034;-75
2022/03/09 05:29:20;;;;;;;3.03;0.50;;;28.30;88.50;;;;;;4993379;28;20022;-76
2022/03/09 05:31:50;;;;;;;3.25;0.80;;;28.90;87.40;;;;;;5013643;28;20022;-75
2022/03/09 05:34:17;;;;;;;4.00;1.30;;;29.80;86.20;;;;;;5013723;28;20049;-76
2022/03/09 05:36:44;;;;;;;3.35;0.82;;;30.80;83.60;;;;;;5012443;28;20025;-70
2022/03/09 05:39:12;;;;;;;3.10;1.63;;;31.40;80.70;;;;;;5012940;28;20018;-69
2022/03/09 05:41:39;;;;;;;5.63;1.80;;;31.90;78.20;;;;;;5013208;28;20034;-71
2022/03/09 05:44:07;;;;;;;2.63;1.20;;;32.20;78.00;;;;;;5011998;28;20022;-75
2022/03/09 05:46:34;;;;;;;4.43;1.00;;;32.50;76.70;;;;;;5011543;28;20026;-72
2022/03/09 05:49:02;;;;;;;3.65;0.80;;;32.70;74.20;;;;;;5012341;28;20014;-71
2022/03/09 05:51:30;;;;;;;3.38;0.57;;;32.50;75.50;;;;;;5013636;28;20026;-74
2022/03/09 05:53:58;;;;;;;3.45;1.58;;;32.50;73.80;;;;;;5013749;28;20030;-78
2022/03/09 05:56:28;;;;;;;2.60;0.63;;;32.40;73.90;;;;;;5013603;28;20030;-72
2022/03/09 05:58:55;;;;;;;4.57;0.50;;;32.00;74.00;;;;;;5012977;28;20125;-74
2022/03/09 06:01:23;;;;;;;5.78;1.38;;;31.80;74.50;;;;;;5012701;28;20018;-74
2022/03/09 06:03:50;;;;;;;2.75;1.08;;;31.40;75.70;;;;;;5013389;28;20485;-73
2022/03/09 06:06:18;;;;;;;5.60;1.50;;;31.00;77.20;;;;;;5012872;28;20018;-71
2022/03/09 06:08:45;;;;;;;4.78;1.80;;;30.70;78.00;;;;;;5012827;28;20743;-70
2022/03/09 06:11:12;;;;;;;8.23;2.63;;;30.70;78.20;;;;;;5013126;28;20510;-74
2022/03/09 06:13:39;;;;;;;6.90;3.42;;;30.80;78.20;;;;;;5012790;28;20064;-71
2022/03/09 06:16:07;;;;;;;8.40;3.22;;;30.70;78.00;;;;;;5011163;28;20022;-73
2022/03/09 06:18:34;;;;;;;9.07;3.22;;;30.50;79.30;;;;;;5013134;28;20022;-76
2022/03/09 06:21:04;;;;;;;9.40;4.45;;;30.60;78.90;;;;;;5012577;28;20486;-75
2022/03/09 06:23:32;;;;;;;9.23;2.80;;;31.00;78.10;;;;;;5012996;28;20033;-75
2022/03/09 06:25:59;;;;;;;8.77;2.63;;;31.10;77.50;;;;;;5012794;28;20494;-72
2022/03/09 06:28:29;;;;;;;10.82;3.00;;;31.10;78.10;;;;;;5012574;28;20038;-74
2022/03/09 06:30:56;;;;;;;7.45;1.92;;;30.80;78.70;;;;;;5012459;28;20104;-72
2022/03/09 06:33:24;;;;;;;10.23;2.90;;;30.10;79.90;;;;;;5012434;28;20153;-74
2022/03/09 06:35:51;;;;;;;11.05;3.33;;;29.40;81.60;;;;;;5012385;28;20478;-74
2022/03/09 06:38:18;;;;;;;9.15;3.95;;;28.80;83.10;;;;;;5008356;28;20029;-75
2022/03/09 06:40:46;;;;;;;12.80;6.07;;;28.00;84.70;;;;;;5012130;28;20108;-75
2022/03/09 06:43:16;;;;;;;13.85;4.70;;;27.40;86.40;;;;;;5012360;28;20053;-75
2022/03/09 06:45:44;;;;;;;10.82;4.55;;;26.80;87.90;;;;;;5011599;28;20018;-75
2022/03/09 06:48:11;;;;;;;10.07;4.10;;;26.70;88.90;;;;;;5010279;28;20029;-73
2022/03/09 06:50:40;;;;;;;8.82;2.97;;;27.30;88.30;;;;;;5012231;28;20057;-74
2022/03/09 06:53:07;;;;;;;11.45;3.40;;;27.90;86.10;;;;;;5009932;28;20455;-78
2022/03/09 06:55:35;;;;;;;9.93;2.45;;;28.20;84.90;;;;;;5010573;28;20166;-73
2022/03/09 06:58:03;;;;;;;10.23;3.28;;;28.30;84.00;;;;;;5009103;28;20022;-74
2022/03/09 07:00:30;;;;;;;9.27;2.53;;;28.50;84.20;;;;;;5010941;28;20026;-75
2022/03/09 07:02:59;;;;;;;9.88;2.28;;;28.70;83.80;;;;;;5011194;28;20359;-76
2022/03/09 07:05:27;;;;;;;9.13;3.35;;;29.10;82.50;;;;;;5010906;28;20359;-72
2022/03/09 07:07:54;;;;;;;8.98;3.53;;;29.40;82.10;;;;;;5011383;28;20069;-72
2022/03/09 07:10:21;;;;;;;10.73;3.15;;;29.60;81.80;;;;;;5010940;28;20030;-72
2022/03/09 07:12:49;;;;;;;16.35;4.50;;;29.50;81.20;;;;;;5010222;28;20064;-74
2022/03/09 07:15:16;;;;;;;9.90;2.88;;;29.40;81.60;;;;;;5011073;28;20045;-75
2022/03/09 07:17:46;;;;;;;11.70;3.17;;;29.30;81.40;;;;;;5011504;28;20026;-76
2022/03/09 07:20:15;;;;;;;10.27;3.08;;;29.10;81.70;;;;;;5011510;28;20032;-75
2022/03/09 07:22:44;;;;;;;12.20;2.45;;;29.10;82.10;;;;;;5011251;28;20029;-75
2022/03/09 07:25:12;;;;;;;13.52;4.45;;;29.00;81.90;;;;;;5011548;28;20014;-73
2022/03/09 07:27:43;;;;;;;13.73;3.80;;;28.90;82.30;;;;;;5010214;28;20029;-74
2022/03/09 07:30:11;;;;;;;14.33;3.60;;;28.60;83.00;;;;;;5012084;28;20018;-73
2022/03/09 07:32:38;;;;;;;11.63;3.65;;;28.20;83.10;;;;;;5012054;28;20286;-75
2022/03/09 07:35:08;;;;;;;10.68;4.07;;;27.90;83.20;;;;;;5011089;28;20079;-73
2022/03/09 07:37:37;;;;;;;14.82;4.28;;;27.20;84.20;;;;;;5008613;28;20109;-74
2022/03/09 07:40:06;;;;;;;12.68;3.92;;;26.60;86.30;;;;;;5009195;28;20070;-75
2022/03/09 07:42:33;;;;;;;12.50;3.33;;;25.90;87.40;;;;;;5009486;28;20482;-73
2022/03/09 07:45:01;;;;;;;10.40;2.97;;;25.30;88.40;;;;;;5009848;28;20531;-75
2022/03/09 07:47:28;;;;;;;14.13;2.78;;;24.90;89.70;;;;;;5009474;28;20104;-72
2022/03/09 07:50:03;;;;;;;13.75;3.22;;;24.50;90.30;;;;;;5008576;28;20029;-74
2022/03/09 07:52:33;;;;;;;9.60;3.08;;;24.10;90.80;;;;;;5008801;28;20045;-73
2022/03/09 07:55:01;;;;;;;12.93;4.38;;;23.80;90.80;;;;;;5010977;28;20026;-72
2022/03/09 07:57:28;;;;;;;12.70;3.47;;;23.60;91.10;;;;;;5009066;28;20031;-75
2022/03/09 07:59:55;;;;;;;13.00;3.83;;;23.40;91.90;;;;;;5012625;28;20530;-74
2022/03/09 08:02:23;;;;;;;13.88;3.25;;;23.20;92.50;;;;;;5014227;28;20398;-78
2022/03/09 08:04:50;;;;;;;12.27;3.65;;;23.10;93.20;;;;;;5013635;28;20018;-71
2022/03/09 08:07:17;;;;;;;13.05;3.63;;;23.00;93.30;;;;;;5014142;28;20100;-72
2022/03/09 08:09:44;;;;;;;11.57;2.72;;;22.90;93.50;;;;;;5013627;28;20053;-72
2022/03/09 08:12:14;;;;;;;12.90;4.22;;;22.80;93.50;;;;;;5014485;28;20370;-73
2022/03/09 08:14:42;;;;;;;11.70;3.13;;;22.70;93.60;;;;;;5014857;28;20139;-73
2022/03/09 08:17:09;;;;;;;16.33;4.93;;;22.60;94.00;;;;;;5016203;28;20052;-74
2022/03/09 08:19:36;;;;;;;14.43;3.78;;;22.60;94.00;;;;;;5015909;28;20022;-73
2022/03/09 08:22:05;;;;;;;15.00;3.45;;;22.40;94.40;;;;;;5015268;28;20034;-77
2022/03/09 08:24:35;;;;;;;11.02;3.03;;;22.40;94.60;;;;;;5016110;28;20033;-77
2022/03/09 08:27:03;;;;;;;15.55;3.33;;;22.30;94.80;;;;;;5015623;28;20018;-73
2022/03/09 08:29:30;;;;;;;19.02;3.55;;;22.20;94.80;;;;;;5015526;28;20029;-76
2022/03/09 08:31:57;;;;;;;18.27;4.18;;;22.10;95.30;;;;;;5015649;28;20029;-73
2022/03/09 08:34:25;;;;;;;15.80;3.97;;;22.10;95.50;;;;;;5015398;28;20024;-75
2022/03/09 08:36:52;;;;;;;13.50;2.70;;;22.00;95.60;;;;;;5015684;28;20048;-71
2022/03/09 08:42:43;;;;;;;16.80;3.72;;;21.90;96.00;;;;;;5015788;28;20053;-70
2022/03/09 08:45:10;;;;;;;17.55;5.85;;;21.80;96.30;;;;;;5015232;28;20026;-71
2022/03/09 08:47:40;;;;;;;16.52;4.65;;;21.80;96.50;;;;;;5015446;28;20030;-73
2022/03/09 08:50:15;;;;;;;18.02;4.40;;;21.70;96.50;;;;;;5014258;28;20029;-69
2022/03/09 08:52:42;;;;;;;14.95;4.93;;;21.70;96.50;;;;;;5013876;28;20052;-70
2022/03/09 08:55:10;;;;;;;15.65;4.20;;;21.70;96.70;;;;;;5014882;28;20026;-72
2022/03/09 08:57:37;;;;;;;18.30;3.80;;;21.60;96.90;;;;;;5014479;28;20385;-73
2022/03/09 09:00:06;;;;;;;13.77;3.85;;;21.60;97.20;;;;;;5014184;28;20018;-71
2022/03/09 09:02:33;;;;;;;18.10;5.07;;;21.60;97.40;;;;;;5014029;28;20036;-71
2022/03/09 09:05:00;;;;;;;18.05;4.45;;;21.50;97.50;;;;;;5013989;28;20025;-71
2022/03/09 09:07:28;;;;;;;19.02;4.45;;;21.50;97.60;;;;;;5011114;28;20437;-75
2022/03/09 09:09:55;;;;;;;11.68;3.25;;;21.40;97.80;;;;;;5012299;28;20052;-72
2022/03/09 09:12:22;;;;;;;15.15;3.30;;;21.40;97.60;;;;;;5021803;28;20018;-73
2022/03/09 09:14:50;;;;;;;10.32;2.83;;;21.30;97.20;;;;;;5033786;28;20117;-76
2022/03/09 09:17:17;;;;;;;13.48;3.65;;;21.30;97.00;;;;;;5016910;28;20101;-74
2022/03/09 09:19:44;;;;;;;10.48;2.72;;;21.20;97.30;;;;;;5013648;28;20394;-73
2022/03/09 09:22:12;;;;;;;12.35;2.40;;;21.20;96.90;;;;;;5013555;28;20823;-73
2022/03/09 09:24:40;;;;;;;17.75;2.88;;;21.20;96.70;;;;;;5013843;28;20022;-74
2022/03/09 09:27:07;;;;;;;10.88;2.30;;;21.10;96.90;;;;;;5013472;28;20026;-73
2022/03/09 09:29:34;;;;;;;14.07;3.35;;;21.10;96.80;;;;;;5013510;28;20481;-72
2022/03/09 09:32:01;;;;;;;14.00;2.60;;;21.00;97.10;;;;;;5013319;28;20021;-71
2022/03/09 09:34:29;;;;;;;9.65;2.67;;;21.00;97.30;;;;;;5012272;28;20026;-72
2022/03/09 09:36:57;;;;;;;11.10;2.03;;;21.00;97.30;;;;;;5012752;28;20018;-72
2022/03/09 09:39:24;;;;;;;12.18;2.95;;;21.00;97.30;;;;;;5013128;28;20022;-75
2022/03/09 09:41:53;;;;;;;9.25;2.72;;;20.90;97.50;;;;;;5012389;28;20045;-76
2022/03/09 09:44:29;;;;;;;12.25;2.28;;;20.90;97.50;;;;;;5013611;28;20402;-73
2022/03/09 09:46:56;;;;;;;14.65;2.78;;;20.80;97.60;;;;;;5013572;28;20018;-70
2022/03/09 09:49:26;;;;;;;11.25;2.33;;;20.80;98.00;;;;;;5013754;28;20033;-73
2022/03/09 09:51:54;;;;;;;13.13;2.63;;;20.70;97.90;;;;;;5013428;28;20172;-79
2022/03/09 09:54:23;;;;;;;12.43;3.13;;;20.70;98.20;;;;;;5013336;28;20029;-74
2022/03/09 09:56:51;;;;;;;11.55;2.60;;;20.70;98.30;;;;;;5013290;28;20478;-73
2022/03/09 09:59:19;;;;;;;11.68;2.75;;;20.60;98.40;;;;;;5013422;28;20029;-74
2022/03/09 10:01:47;;;;;;;10.52;3.22;;;20.60;98.70;;;;;;5013459;28;20073;-77
2022/03/09 10:04:15;;;;;;;14.48;3.38;;;20.50;98.80;;;;;;5013259;28;20080;-72
2022/03/09 10:06:43;;;;;;;13.98;2.85;;;20.50;99.00;;;;;;5013241;28;20026;-73
2022/03/09 10:09:12;;;;;;;18.77;4.03;;;20.50;99.20;;;;;;5013155;28;20045;-73
2022/03/09 10:11:56;;;;;;;14.75;2.95;;;20.40;99.30;;;;;;5011040;28;20075;-74
2022/03/09 10:14:52;;;;;;;22.65;3.58;;;20.40;99.70;;;;;;5012245;28;20022;-74
2022/03/09 10:17:30;;;;;;;13.27;2.80;;;20.50;99.90;;;;;;5011835;28;20021;-72
2022/03/09 10:20:07;;;;;;;18.13;4.13;;;20.40;99.90;;;;;;5011609;28;20114;-72
2022/03/09 10:22:49;;;;;;;16.30;3.53;;;20.40;99.90;;;;;;5012779;28;20029;-71
2022/03/09 10:25:20;;;;;;;17.85;3.53;;;20.40;99.90;;;;;;5011619;28;20026;-72
2022/03/09 10:27:53;;;;;;;17.27;3.67;;;20.30;99.90;;;;;;5012869;28;20045;-70
2022/03/09 10:30:29;;;;;;;16.35;3.45;;;20.30;99.90;;;;;;5013057;28;20502;-73
2022/03/09 10:32:58;;;;;;;15.65;3.58;;;20.30;99.90;;;;;;5013259;28;20037;-75
2022/03/09 10:35:32;;;;;;;13.80;3.47;;;20.30;99.90;;;;;;5011683;28;20053;-72
2022/03/09 10:38:04;;;;;;;21.40;3.80;;;20.20;99.90;;;;;;5013126;28;20026;-77
2022/03/09 10:40:39;;;;;;;20.58;3.38;;;20.20;99.90;;;;;;5011093;28;20674;-73
2022/03/09 10:43:14;;;;;;;15.20;3.40;;;20.20;99.90;;;;;;5011886;28;20032;-77
2022/03/09 10:46:08;;;;;;;13.38;3.58;;;20.20;99.90;;;;;;5013180;28;20554;-78
2022/03/09 10:48:55;;;;;;;18.65;3.22;;;20.10;99.90;;;;;;5010862;28;20026;-77
2022/03/09 10:51:37;;;;;;;16.38;3.30;;;20.20;99.90;;;;;;5012244;28;20030;-77
2022/03/09 10:54:07;;;;;;;15.50;2.97;;;20.10;99.90;;;;;;4992465;28;20149;-73
2022/03/09 10:56:38;;;;;;;20.70;4.10;;;20.10;99.90;;;;;;4993679;28;20037;-77
2022/03/09 10:59:12;;;;;;;16.75;4.22;;;20.10;99.90;;;;;;4993152;28;20018;-75
2022/03/09 11:01:41;;;;;;;21.33;3.58;;;20.10;99.90;;;;;;4991347;28;20099;-72
2022/03/09 11:04:12;;;;;;;19.33;3.97;;;20.10;99.90;;;;;;4992791;28;20019;-76
2022/03/09 11:06:46;;;;;;;18.17;3.67;;;20.10;99.90;;;;;;4993043;28;20030;-74
2022/03/09 11:09:20;;;;;;;17.75;4.28;;;20.10;99.90;;;;;;4993016;28;20050;-78
2022/03/09 11:11:49;;;;;;;14.95;3.70;;;20.10;99.90;;;;;;4993409;28;20507;-73
2022/03/09 11:14:20;;;;;;;21.27;4.63;;;20.10;99.90;;;;;;4993306;28;20018;-72
2022/03/09 11:16:49;;;;;;;15.15;4.28;;;20.00;99.90;;;;;;4992709;28;20533;-77
2022/03/09 11:19:20;;;;;;;22.50;4.70;;;20.00;99.90;;;;;;5008089;28;20482;-71
2022/03/09 11:21:48;;;;;;;11.95;2.40;;;20.00;99.90;;;;;;5010629;28;20034;-73
2022/03/09 11:24:20;;;;;;;20.25;4.30;;;20.00;99.90;;;;;;5012399;28;20026;-76
2022/03/09 11:26:53;;;;;;;16.45;3.88;;;20.00;99.90;;;;;;5010796;28;20057;-73
2022/03/09 11:29:36;;;;;;;14.68;2.97;;;20.00;99.90;;;;;;5012126;28;20093;-78
2022/03/09 11:32:09;;;;;;;16.52;3.60;;;20.00;99.90;;;;;;5012216;28;20034;-75
2022/03/09 11:34:45;;;;;;;13.43;2.63;;;19.90;99.90;;;;;;5010204;28;20029;-76
2022/03/09 11:37:16;;;;;;;15.68;2.80;;;19.90;99.90;;;;;;5012123;28;20049;-74
2022/03/09 11:40:14;;;;;;;19.40;3.15;;;19.90;99.90;;;;;;5012536;28;20559;-75
2022/03/09 11:42:44;;;;;;;11.98;2.72;;;19.90;99.90;;;;;;5011131;28;20050;-79
2022/03/09 11:45:21;;;;;;;11.77;3.20;;;19.90;99.90;;;;;;5009856;28;20395;-74
2022/03/09 11:48:00;;;;;;;21.83;3.53;;;19.90;99.90;;;;;;5011939;28;20018;-75
2022/03/09 11:50:30;;;;;;;13.30;3.20;;;19.90;99.90;;;;;;5012101;28;20056;-74
2022/03/09 11:53:43;;;;;;;17.63;3.85;;;19.80;99.90;;;;;;5011930;28;20022;-73
2022/03/09 11:56:28;;;;;;;14.85;3.05;;;19.80;99.90;;;;;;5006474;28;20044;-76
2022/03/09 11:59:07;;;;;;;22.25;2.88;;;19.80;99.90;;;;;;5011902;28;20029;-75
2022/03/09 12:02:03;;;;;;;17.27;3.42;;;19.80;99.90;;;;;;5011808;28;20034;-75
2022/03/09 12:04:49;;;;;;;14.20;3.40;;;19.80;99.90;;;;;;5011919;28;20040;-73
2022/03/09 12:07:39;;;;;;;15.80;3.65;;;19.80;99.90;;;;;;5012233;28;20033;-74
2022/03/09 12:10:11;;;;;;;21.13;3.55;;;19.80;99.90;;;;;;5008885;28;20046;-71
2022/03/09 12:12:40;;;;;;;;;;;19.70;99.90;;;;;;5011861;28;20444;-75
2022/03/09 12:15:09;;;;;;;17.15;4.53;;;19.70;99.90;;;;;;5012115;28;19968;-71
2022/03/09 12:17:38;;;;;;;17.17;2.88;;;19.70;99.90;;;;;;5011782;28;20026;-74
2022/03/09 12:20:27;;;;;;;17.20;2.80;;;19.60;99.90;;;;;;5011669;28;20026;-74
2022/03/09 12:23:04;;;;;;;14.82;3.38;;;19.60;99.90;;;;;;5011747;28;20040;-77
2022/03/09 12:25:50;;;;;;;13.93;2.85;;;19.60;99.90;;;;;;5012106;28;20514;-74
2022/03/09 12:28:40;;;;;;;17.05;2.70;;;19.60;99.90;;;;;;5012090;28;20478;-72
2022/03/09 12:31:10;;;;;;;16.30;2.95;;;19.60;99.90;;;;;;5009317;28;20041;-72
2022/03/09 12:33:43;;;;;;;17.75;3.63;;;19.60;99.90;;;;;;5012496;28;20029;-74
2022/03/09 12:36:20;;;;;;;18.17;4.25;;;19.50;99.90;;;;;;5011867;28;20026;-75
2022/03/09 12:39:15;;;;;;;15.65;3.33;;;19.50;99.90;;;;;;5011765;28;20113;-71
2022/03/09 12:41:44;;;;;;;11.98;2.90;;;19.50;99.90;;;;;;5011182;28;20069;-70
2022/03/09 12:44:24;;;;;;;20.02;3.08;;;19.50;99.90;;;;;;5011993;28;20108;-71
2022/03/09 12:46:53;;;;;;;17.15;3.58;;;19.50;99.90;;;;;;5014233;28;20018;-78
2022/03/09 12:49:37;;;;;;;15.57;4.47;;;19.40;99.90;;;;;;5015410;28;20022;-78
2022/03/09 12:52:06;;;;;;;16.35;3.92;;;19.40;99.90;;;;;;5015612;28;20041;-75
2022/03/09 12:54:38;;;;;;;16.60;2.65;;;19.40;99.90;;;;;;5014408;28;20486;-80
2022/03/09 12:57:11;;;;;;;12.45;3.20;;;19.40;99.90;;;;;;5015706;28;20466;-77
2022/03/09 12:59:40;;;;;;;20.35;4.15;;;19.30;99.90;;;;;;5015139;28;20034;-76
2022/03/09 13:02:11;;;;;;;19.10;4.25;;;19.30;99.90;;;;;;5014614;28;20363;-78